This is the latest recevied weather packets stored in our database for station/object N0NAI-13. If no packets are shown the sender has not sent any weather packets the latest 1 day(s).
| Time | Temp. | Humidity | Pressure | Rain* | Wind** | Luminosity | Snow |
|---|---|---|---|---|---|---|---|
| 1778050522 | 1.11° C | 76% | 1015.3 hPa | 0 mm | 0 m/s | - | - |
| 1778048718 | 1.11° C | 75% | 1015.3 hPa | 0 mm | 0 m/s | - | - |
| 1778045732 | 2.22° C | 72% | 1014.9 hPa | 0 mm | 0 m/s | - | - |
| 1778045117 | 2.22° C | 71% | 1015 hPa | 0 mm | 0 m/s | - | - |
| 1778042723 | 3.33° C | 67% | 1014.7 hPa | 0 mm | 0 m/s | - | - |
| 1778042126 | 3.33° C | 67% | 1014.7 hPa | 0 mm | 0 m/s | - | - |
| 1778041529 | 3.33° C | 67% | 1014.7 hPa | 0 mm | 0 m/s | - | - |
| 1778039718 | 3.89° C | 65% | 1014.5 hPa | 0 mm | 0 m/s | - | - |
| 1778037915 | 5° C | 62% | 1014.3 hPa | 0 mm | 0 m/s | - | - |
| 1778037330 | 5° C | 61% | 1014.3 hPa | 0 mm | 0 m/s | - | - |
| 1778036715 | 5.56° C | 61% | 1014.3 hPa | 0 mm | 0 m/s | - | - |
| 1778035522 | 6.11° C | 60% | 1014 hPa | 0 mm | 0.45 m/s, 360° | - | - |
| 1778031920 | 7.78° C | 53% | 1013.3 hPa | 0 mm | 0 m/s | - | - |
| 1778030726 | 8.33° C | 49% | 1013.1 hPa | 0 mm | 0.45 m/s, 334° | - | - |
| 1778030129 | 8.89° C | 47% | 1013.1 hPa | 0 mm | 0.45 m/s, 281° | - | - |
| 1778029532 | 9.44° C | 46% | 1013 hPa | 0 mm | 0.45 m/s, 257° | - | - |
| 1778028917 | 9.44° C | 45% | 1012.9 hPa | 0 mm | 0.45 m/s, 305° | - | - |
| 1778028319 | 9.44° C | 44% | 1012.9 hPa | 0 mm | 0.89 m/s, 279° | - | - |
| 1778027723 | 10° C | 43% | 1012.8 hPa | 0 mm | 1.34 m/s, 283° | - | - |
| 1778027120 | 10.56° C | 41% | 1012.6 hPa | 0 mm | 1.79 m/s, 295° | - | - |
| 1778026517 | 11.11° C | 41% | 1012.6 hPa | 0 mm | 1.34 m/s, 273° | - | - |
| 1778025932 | 11.11° C | 40% | 1012.6 hPa | 0 mm | 1.79 m/s, 293° | - | - |
| 1778025317 | 11.11° C | 41% | 1012.6 hPa | 0 mm | 1.79 m/s, 312° | - | - |
| 1778024720 | 10.56° C | 42% | 1012.6 hPa | 0 mm | 0.89 m/s, 285° | - | - |
| 1778024123 | 10.56° C | 42% | 1012.6 hPa | 0 mm | 1.79 m/s, 257° | - | - |
* Rain latest hour (hover to see other rain measurements)
** Current wind speed in m/s (hover to see current wind gust speed)